Farmington, Maine
Current Conditions -  °F | °C
As of 4:35 AM on Sunday 26 Oct 2014 (Local Time) from KWVL Reporting Station
Broken Clouds Broken Clouds  
Wind Chill: 45°   Ceiling: 100
Heat Index: 45°   Visibility: 0.25mi
Dew Point: 39°   Wind: 3mph
Humidity: 81%   Direction: 200°SSW
Pressure: 29.35"   Gusts: NA
Location:  44.67°N, 70.15°W
Report Text: KWVL 260835Z 20003KT 1/4SM BKN001 07/04 A2935 RMK AO1
Loading
Personal Weather Stations






























Interactive Weather Map
Tropical Storm Tracking
New forecast layout! Learn more

10-Day Weather Forecast

Advertisements
Track Severe Weather on mobile